Time;durP1;ratioP1;P1;durP2;ratioP2;P2;SDS_P1;SDS_P2;PMS_P1;PMS_P2;Temp;Humidity;BMP_temperature;BMP_pressure;BME280_temperature;BME280_humidity;BME280_pressure;Samples;Min_cycle;Max_cycle;Signal;HPM_P1;HPM_P2
2021/08/27 00:01:24;;;;;;;;;;;15.40;99.90;;;;;;1861969;77;20167;-71
2021/08/27 00:03:51;;;;;;;;;;;15.30;99.90;;;;;;1893681;76;20150;-71
2021/08/27 00:06:18;;;;;;;;;;;15.40;99.90;;;;;;1862208;77;20112;-71
2021/08/27 00:08:45;;;;;;;;;;;15.30;99.90;;;;;;1893546;76;20527;-71
2021/08/27 00:11:13;;;;;;;;;;;15.40;99.90;;;;;;1861938;76;20120;-71
2021/08/27 00:13:42;;;;;;;;;;;15.20;99.90;;;;;;1893645;76;20432;-71
2021/08/27 00:16:08;;;;;;;;;;;15.20;99.90;;;;;;1861223;76;20191;-71
2021/08/27 00:18:36;;;;;;;;;;;15.20;99.90;;;;;;1893682;76;20530;-71
2021/08/27 00:21:03;;;;;;;;;;;15.20;99.90;;;;;;1862029;77;20132;-71
2021/08/27 00:23:30;;;;;;;;;;;15.10;99.90;;;;;;1893772;76;20198;-71
2021/08/27 00:25:57;;;;;;;;;;;15.10;99.90;;;;;;1862235;77;20120;-71
2021/08/27 00:28:23;;;;;;;;;;;15.20;99.90;;;;;;1893606;76;20174;-71
2021/08/27 00:30:50;;;;;;;;;;;15.20;99.90;;;;;;1861992;77;20121;-71
2021/08/27 00:33:17;;;;;;;;;;;15.20;99.90;;;;;;1893777;75;20202;-71
2021/08/27 00:35:44;;;;;;;;;;;15.10;99.90;;;;;;1862228;77;20176;-71
2021/08/27 00:38:14;;;;;;;;;;;15.10;99.90;;;;;;1893665;76;20424;-71
2021/08/27 00:40:39;;;;;;;;;;;15.00;99.90;;;;;;1861714;76;20156;-71
2021/08/27 00:43:06;;;;;;;;;;;15.10;99.90;;;;;;1863642;77;20210;-71
2021/08/27 00:45:33;;;;;;;;;;;15.10;99.90;;;;;;1893777;76;20162;-71
2021/08/27 00:48:00;;;;;;;;;;;15.00;99.90;;;;;;1862208;77;20171;-71
2021/08/27 00:50:27;;;;;;;;;;;15.00;99.90;;;;;;1863520;77;20151;-71
2021/08/27 00:52:54;;;;;;;;;;;15.00;99.90;;;;;;1893585;76;20206;-71
2021/08/27 00:55:21;;;;;;;;;;;15.00;99.90;;;;;;1862211;77;20163;-71
2021/08/27 00:57:48;;;;;;;;;;;15.00;99.90;;;;;;1893757;74;20225;-71
2021/08/27 01:00:15;;;;;;;;;;;14.90;99.90;;;;;;1862183;76;20175;-71
2021/08/27 01:02:41;;;;;;;;;;;15.00;99.90;;;;;;1893509;76;20173;-71
2021/08/27 01:05:09;;;;;;;;;;;15.00;99.90;;;;;;1862209;77;20221;-72
2021/08/27 01:07:37;;;;;;;;;;;15.10;99.90;;;;;;1893652;76;20132;-71
2021/08/27 01:10:05;;;;;;;;;;;15.20;99.90;;;;;;1862143;77;20128;-71
2021/08/27 01:12:36;;;;;;;;;;;15.10;99.90;;;;;;1893707;76;20169;-72
2021/08/27 01:15:10;;;;;;;;;;;15.10;99.90;;;;;;1861855;76;20160;-72
2021/08/27 01:17:39;;;;;;;;;;;15.10;99.90;;;;;;1893047;75;20198;-71
2021/08/27 01:20:10;;;;;;;;;;;15.20;99.90;;;;;;1892039;75;20124;-71
2021/08/27 01:22:51;;;;;;;;;;;15.10;99.90;;;;;;1883396;76;20448;-71
2021/08/27 01:25:19;;;;;;;;;;;15.20;99.90;;;;;;1892142;76;20151;-71
2021/08/27 01:27:47;;;;;;;;;;;15.10;99.90;;;;;;1892148;76;20159;-71
2021/08/27 01:30:18;;;;;;;;;;;15.20;99.90;;;;;;1892013;76;20213;-71
2021/08/27 01:32:46;;;;;;;;;;;15.10;99.90;;;;;;1869420;76;20299;-71
2021/08/27 01:35:15;;;;;;;;;;;15.10;99.90;;;;;;1892287;76;20197;-71
2021/08/27 01:37:43;;;;;;;;;;;15.10;99.90;;;;;;1892247;76;20459;-71
2021/08/27 01:40:11;;;;;;;;;;;15.20;99.90;;;;;;1890722;75;20120;-71
2021/08/27 01:42:37;;;;;;;;;;;15.10;99.90;;;;;;1892053;76;20175;-71
2021/08/27 01:45:05;;;;;;;;;;;15.00;99.90;;;;;;1892357;76;20167;-71
2021/08/27 01:47:33;;;;;;;;;;;15.00;99.90;;;;;;1892305;76;20163;-71
2021/08/27 01:50:01;;;;;;;;;;;15.00;99.90;;;;;;1892142;76;20176;-71
2021/08/27 01:52:28;;;;;;;;;;;14.90;99.90;;;;;;1891873;76;20197;-71
2021/08/27 01:54:56;;;;;;;;;;;14.90;99.90;;;;;;1896025;74;20110;-71
2021/08/27 01:57:23;;;;;;;;;;;14.80;99.90;;;;;;1893714;76;20163;-71
2021/08/27 01:59:50;;;;;;;;;;;14.70;99.90;;;;;;1862095;77;20171;-71
2021/08/27 02:02:17;;;;;;;;;;;14.70;99.90;;;;;;1893536;76;20189;-71
2021/08/27 02:04:45;;;;;;;;;;;14.70;99.90;;;;;;1862273;77;20442;-71
2021/08/27 02:07:13;;;;;;;;;;;14.70;99.90;;;;;;1893523;74;20249;-71
2021/08/27 02:09:41;;;;;;;;;;;14.70;99.90;;;;;;1862239;76;20112;-71
2021/08/27 02:12:08;;;;;;;;;;;14.60;99.90;;;;;;1893347;76;20178;-71
2021/08/27 02:14:36;;;;;;;;;;;14.60;99.90;;;;;;1862284;77;20167;-71
2021/08/27 02:17:06;;;;;;;;;;;14.60;99.90;;;;;;1893614;74;20202;-71
2021/08/27 02:19:34;;;;;;;;;;;14.60;99.90;;;;;;1862351;76;20127;-71
2021/08/27 02:22:02;;;;;;;;;;;14.60;99.90;;;;;;1893369;76;20190;-72
2021/08/27 02:24:31;;;;;;;;;;;14.70;99.90;;;;;;1862256;77;20457;-71
2021/08/27 02:26:58;;;;;;;;;;;14.70;99.90;;;;;;1893572;76;20187;-71
2021/08/27 02:29:26;;;;;;;;;;;14.70;99.90;;;;;;1862200;77;20175;-72
2021/08/27 02:31:54;;;;;;;;;;;14.60;99.90;;;;;;1893336;76;20479;-71
2021/08/27 02:34:22;;;;;;;;;;;14.60;99.90;;;;;;1892106;75;20201;-71
2021/08/27 02:36:50;;;;;;;;;;;14.50;99.90;;;;;;1895300;73;20188;-74
2021/08/27 02:39:18;;;;;;;;;;;14.50;99.90;;;;;;1900093;75;20180;-74
2021/08/27 02:41:45;;;;;;;;;;;14.50;99.90;;;;;;1899753;75;20169;-74
2021/08/27 02:44:12;;;;;;;;;;;14.50;99.90;;;;;;1900112;75;20121;-74
2021/08/27 02:46:39;;;;;;;;;;;14.50;99.90;;;;;;1914743;74;20180;-74
2021/08/27 02:49:06;;;;;;;;;;;14.60;99.90;;;;;;1934189;74;20198;-74
2021/08/27 02:51:37;;;;;;;;;;;14.50;99.90;;;;;;1933777;74;20137;-74
2021/08/27 02:54:05;;;;;;;;;;;14.50;99.90;;;;;;1933628;74;20156;-74
2021/08/27 02:56:33;;;;;;;;;;;14.50;99.90;;;;;;1934020;73;20164;-74
2021/08/27 02:59:02;;;;;;;;;;;14.60;99.90;;;;;;1933196;74;20102;-74
2021/08/27 03:01:37;;;;;;;;;;;14.50;99.90;;;;;;1933808;73;20125;-74
2021/08/27 03:04:05;;;;;;;;;;;14.50;99.90;;;;;;1933958;74;20202;-74
2021/08/27 03:06:34;;;;;;;;;;;14.50;99.90;;;;;;1934000;73;20157;-74
2021/08/27 03:09:02;;;;;;;;;;;14.60;99.90;;;;;;1933614;74;20160;-74
2021/08/27 03:11:30;;;;;;;;;;;14.60;99.90;;;;;;1933596;73;20118;-74
2021/08/27 03:14:02;;;;;;;;;;;14.70;99.90;;;;;;1933998;73;20203;-74
2021/08/27 03:16:29;;;;;;;;;;;14.70;99.90;;;;;;1925242;73;20474;-74
2021/08/27 03:19:00;;;;;;;;;;;14.70;99.90;;;;;;1934040;74;20608;-74
2021/08/27 03:21:29;;;;;;;;;;;14.80;99.90;;;;;;1933943;74;20195;-74
2021/08/27 03:23:57;;;;;;;;;;;14.80;99.90;;;;;;1933696;73;20407;-74
2021/08/27 03:26:25;;;;;;;;;;;14.80;99.90;;;;;;1933920;73;20117;-74
2021/08/27 03:28:57;;;;;;;;;;;14.80;99.90;;;;;;1933608;74;20859;-74
2021/08/27 03:31:25;;;;;;;;;;;14.80;99.90;;;;;;1933575;74;20379;-74
2021/08/27 03:33:53;;;;;;;;;;;14.90;99.90;;;;;;1934133;74;20121;-74
2021/08/27 03:36:21;;;;;;;;;;;14.90;99.90;;;;;;1933882;73;20121;-74
2021/08/27 03:38:49;;;;;;;;;;;14.80;99.90;;;;;;1933955;74;20169;-74
2021/08/27 03:41:17;;;;;;;;;;;14.80;99.90;;;;;;1933920;74;20410;-74
2021/08/27 03:43:45;;;;;;;;;;;14.80;99.90;;;;;;1933875;74;20391;-74
2021/08/27 03:46:12;;;;;;;;;;;14.90;99.90;;;;;;1934135;73;20468;-74
2021/08/27 03:48:39;;;;;;;;;;;14.90;99.90;;;;;;1933973;74;20457;-74
2021/08/27 03:51:08;;;;;;;;;;;14.90;99.90;;;;;;1933535;74;20125;-74
2021/08/27 03:53:36;;;;;;;;;;;15.00;99.90;;;;;;1934125;74;20456;-74
2021/08/27 03:56:04;;;;;;;;;;;14.90;99.90;;;;;;1934076;73;20117;-74
2021/08/27 03:58:31;;;;;;;;;;;14.90;99.90;;;;;;1933963;74;20153;-74
2021/08/27 04:00:58;;;;;;;;;;;15.00;99.90;;;;;;1933781;74;20196;-74
2021/08/27 04:03:25;;;;;;;;;;;15.00;99.90;;;;;;1934004;74;20121;-74
2021/08/27 04:05:59;;;;;;;;;;;15.00;99.90;;;;;;1934127;73;20191;-74
2021/08/27 04:08:25;;;;;;;;;;;15.00;99.90;;;;;;1934129;74;20192;-74
2021/08/27 04:10:52;;;;;;;;;;;15.00;99.90;;;;;;1933543;74;20226;-73
2021/08/27 04:13:19;;;;;;;;;;;15.00;99.90;;;;;;1934077;74;20152;-73
2021/08/27 04:15:46;;;;;;;;;;;15.10;99.90;;;;;;1933802;73;20156;-74
2021/08/27 04:18:13;;;;;;;;;;;15.10;99.90;;;;;;1933835;74;20193;-73
2021/08/27 04:20:39;;;;;;;;;;;15.10;99.90;;;;;;1933839;73;20122;-74
2021/08/27 04:23:06;;;;;;;;;;;15.10;99.90;;;;;;1934055;74;20177;-73
2021/08/27 04:25:33;;;;;;;;;;;15.10;99.90;;;;;;1934006;74;20121;-74
2021/08/27 04:28:00;;;;;;;;;;;15.10;99.90;;;;;;1933869;73;20278;-73
2021/08/27 04:30:27;;;;;;;;;;;15.10;99.90;;;;;;1933788;74;20195;-73
2021/08/27 04:32:53;;;;;;;;;;;15.10;99.90;;;;;;1933957;74;20148;-74
2021/08/27 04:35:20;;;;;;;;;;;15.10;99.90;;;;;;1933994;74;20180;-74
2021/08/27 04:37:47;;;;;;;;;;;15.10;99.90;;;;;;1933938;73;20210;-73
2021/08/27 04:40:14;;;;;;;;;;;15.20;99.90;;;;;;1933895;74;20121;-74
2021/08/27 04:42:41;;;;;;;;;;;15.20;99.90;;;;;;1933737;74;20164;-73
2021/08/27 04:45:08;;;;;;;;;;;15.20;99.90;;;;;;1933885;73;20141;-73
2021/08/27 04:47:35;;;;;;;;;;;15.20;99.90;;;;;;1933909;73;20176;-74
2021/08/27 04:50:01;;;;;;;;;;;15.30;99.90;;;;;;1933908;74;20188;-73
2021/08/27 04:52:28;;;;;;;;;;;15.30;99.90;;;;;;1933698;74;20125;-73
2021/08/27 04:54:55;;;;;;;;;;;15.30;99.90;;;;;;1933923;74;20176;-73
2021/08/27 04:57:23;;;;;;;;;;;15.20;99.90;;;;;;1934075;73;20125;-74
2021/08/27 04:59:50;;;;;;;;;;;15.30;99.90;;;;;;1933990;74;20106;-74
2021/08/27 05:02:17;;;;;;;;;;;15.30;99.90;;;;;;1933867;73;20195;-74
2021/08/27 05:04:44;;;;;;;;;;;15.30;99.90;;;;;;1933922;74;20125;-73
2021/08/27 05:07:11;;;;;;;;;;;15.30;99.90;;;;;;1933943;73;20160;-73
2021/08/27 05:09:38;;;;;;;;;;;15.30;99.90;;;;;;1933857;74;20426;-74
2021/08/27 05:12:05;;;;;;;;;;;15.30;99.90;;;;;;1933539;74;20114;-74
2021/08/27 05:14:32;;;;;;;;;;;15.30;99.90;;;;;;1933851;74;20188;-73
2021/08/27 05:17:00;;;;;;;;;;;15.30;99.90;;;;;;1933783;73;20192;-73
2021/08/27 05:19:26;;;;;;;;;;;15.30;99.90;;;;;;1933887;74;20422;-73
2021/08/27 05:21:54;;;;;;;;;;;15.30;99.90;;;;;;1933400;73;20114;-73
2021/08/27 05:24:20;;;;;;;;;;;15.40;99.90;;;;;;1933638;74;20176;-73
2021/08/27 05:26:47;;;;;;;;;;;15.40;99.90;;;;;;1933883;73;20454;-73
2021/08/27 05:29:14;;;;;;;;;;;15.30;99.90;;;;;;1933835;74;20172;-73
2021/08/27 05:31:41;;;;;;;;;;;15.40;99.90;;;;;;1933669;74;20472;-74
2021/08/27 05:34:08;;;;;;;;;;;15.40;99.90;;;;;;1933927;74;20125;-73
2021/08/27 05:36:34;;;;;;;;;;;15.40;99.90;;;;;;1933647;73;20222;-73
2021/08/27 05:39:02;;;;;;;;;;;15.40;99.90;;;;;;1933601;74;20471;-73
2021/08/27 05:41:29;;;;;;;;;;;15.40;99.90;;;;;;1933755;74;20172;-74
2021/08/27 05:43:56;;;;;;;;;;;15.40;99.90;;;;;;1933644;74;20168;-74
2021/08/27 05:46:23;;;;;;;;;;;15.40;99.90;;;;;;1933935;73;20439;-73
2021/08/27 05:48:50;;;;;;;;;;;15.40;99.90;;;;;;1933770;74;20152;-73
2021/08/27 05:51:16;;;;;;;;;;;15.50;99.90;;;;;;1933719;74;20211;-73
2021/08/27 05:53:43;;;;;;;;;;;15.50;99.90;;;;;;1933953;74;20173;-73
2021/08/27 05:56:11;;;;;;;;;;;15.50;99.90;;;;;;1933739;73;20121;-73
2021/08/27 05:58:38;;;;;;;;;;;15.50;99.90;;;;;;1933921;74;20173;-73
2021/08/27 06:01:05;;;;;;;;;;;15.50;99.90;;;;;;1933834;74;20172;-73
2021/08/27 06:03:32;;;;;;;;;;;15.50;99.90;;;;;;1934030;74;20451;-73
2021/08/27 06:05:58;;;;;;;;;;;15.60;99.90;;;;;;1933853;73;20113;-73
2021/08/27 06:08:25;;;;;;;;;;;15.60;99.90;;;;;;1934131;74;20434;-73
2021/08/27 06:10:52;;;;;;;;;;;15.70;99.90;;;;;;1933619;74;20152;-73
2021/08/27 06:13:19;;;;;;;;;;;15.70;99.90;;;;;;1934150;74;20394;-73
2021/08/27 06:15:46;;;;;;;;;;;15.70;99.90;;;;;;1934126;73;20177;-73
2021/08/27 06:18:12;;;;;;;;;;;15.70;99.90;;;;;;1934019;74;20125;-73
2021/08/27 06:20:39;;;;;;;;;;;15.80;99.90;;;;;;1933686;74;20125;-73
2021/08/27 06:23:06;;;;;;;;;;;15.80;99.90;;;;;;1933928;74;20161;-73
2021/08/27 06:25:33;;;;;;;;;;;15.80;99.90;;;;;;1934167;74;20400;-73
2021/08/27 06:28:00;;;;;;;;;;;15.80;99.90;;;;;;1933803;73;20239;-73
2021/08/27 06:30:26;;;;;;;;;;;15.80;99.90;;;;;;1933921;74;20510;-73
2021/08/27 06:32:53;;;;;;;;;;;15.80;99.90;;;;;;1934032;74;20176;-73
2021/08/27 06:35:20;;;;;;;;;;;15.80;99.90;;;;;;1933934;74;20174;-73
2021/08/27 06:40:32;;;;;;;;;;;15.90;99.90;;;;;;1933764;74;20180;-73
2021/08/27 06:42:59;;;;;;;;;;;15.90;99.90;;;;;;1933995;74;20145;-73
2021/08/27 06:45:26;;;;;;;;;;;15.90;99.90;;;;;;1933951;74;20208;-73
2021/08/27 06:47:52;;;;;;;;;;;15.90;99.90;;;;;;1934043;73;20181;-73
2021/08/27 06:50:19;;;;;;;;;;;15.90;99.90;;;;;;1933845;74;20164;-73
2021/08/27 06:52:46;;;;;;;;;;;15.90;99.90;;;;;;1933984;74;20129;-73
2021/08/27 06:55:13;;;;;;;;;;;15.90;99.90;;;;;;1934104;74;20450;-73
2021/08/27 06:57:40;;;;;;;;;;;16.00;99.90;;;;;;1926396;73;20122;-73
2021/08/27 07:00:07;;;;;;;;;;;16.00;99.90;;;;;;1933800;74;20462;-73
2021/08/27 07:02:34;;;;;;;;;;;16.00;99.90;;;;;;1933507;73;20409;-74
2021/08/27 07:05:01;;;;;;;;;;;16.00;99.90;;;;;;1933684;74;20373;-73
2021/08/27 07:07:27;;;;;;;;;;;16.00;99.90;;;;;;1934094;73;20222;-73
2021/08/27 07:09:54;;;;;;;;;;;16.00;99.90;;;;;;1933908;74;20129;-73
2021/08/27 07:12:21;;;;;;;;;;;16.00;99.90;;;;;;1933719;74;20179;-73
2021/08/27 07:14:50;;;;;;;;;;;16.00;99.90;;;;;;1934010;74;20156;-73
2021/08/27 07:17:18;;;;;;;;;;;16.00;99.90;;;;;;1933667;73;20151;-73
2021/08/27 07:19:47;;;;;;;;;;;16.00;99.90;;;;;;1933998;74;20481;-73
2021/08/27 07:22:14;;;;;;;;;;;16.00;99.90;;;;;;1933369;74;20217;-73
2021/08/27 07:24:40;;;;;;;;;;;16.00;99.90;;;;;;1933890;74;20122;-73
2021/08/27 07:27:11;;;;;;;;;;;16.00;99.90;;;;;;1933784;73;20157;-73
2021/08/27 07:29:37;;;;;;;;;;;16.00;99.90;;;;;;1932829;74;20168;-73
2021/08/27 07:32:06;;;;;;;;;;;16.00;99.90;;;;;;1933569;74;20303;-73
2021/08/27 07:34:33;;;;;;;;;;;16.00;99.90;;;;;;1929769;74;20175;-74
2021/08/27 07:36:59;;;;;;;;;;;15.90;99.90;;;;;;1933654;73;20478;-73
2021/08/27 07:39:26;;;;;;;;;;;15.90;99.90;;;;;;1933762;74;20180;-73
2021/08/27 07:41:53;;;;;;;;;;;15.90;99.90;;;;;;1933367;73;20118;-73
2021/08/27 07:44:20;;;;;;;;;;;15.90;99.90;;;;;;1933804;74;20177;-73
2021/08/27 07:46:47;;;;;;;;;;;15.80;99.90;;;;;;1933788;73;20219;-73
2021/08/27 07:49:14;;;;;;;;;;;15.90;99.90;;;;;;1933863;74;20244;-73
2021/08/27 07:51:46;;;;;;;;;;;15.80;99.90;;;;;;1933570;74;20157;-73
2021/08/27 07:54:09;;;;;;;;;;;15.70;99.90;;;;;;1932908;74;20160;-73
2021/08/27 07:56:36;;;;;;;;;;;15.70;99.90;;;;;;1933919;73;20165;-73
2021/08/27 07:59:03;;;;;;;;;;;15.70;99.90;;;;;;1933837;74;20465;-73
2021/08/27 08:01:30;;;;;;;;;;;15.70;99.90;;;;;;1933680;74;20110;-74
2021/08/27 08:03:57;;;;;;;;;;;15.60;99.90;;;;;;1933767;74;20549;-73
2021/08/27 08:06:24;;;;;;;;;;;15.60;99.90;;;;;;1933943;73;20384;-73
2021/08/27 08:08:51;;;;;;;;;;;15.70;99.90;;;;;;1933946;74;20210;-73
2021/08/27 08:11:17;;;;;;;;;;;15.60;99.90;;;;;;1933654;74;20172;-73
2021/08/27 08:13:44;;;;;;;;;;;15.60;99.90;;;;;;1933830;74;20172;-73
2021/08/27 08:16:12;;;;;;;;;;;15.70;99.90;;;;;;1933963;73;20157;-73
2021/08/27 08:18:39;;;;;;;;;;;15.70;99.90;;;;;;1933940;74;20189;-73
2021/08/27 08:21:06;;;;;;;;;;;15.70;99.90;;;;;;1933637;74;20176;-73
2021/08/27 08:23:33;;;;;;;;;;;15.70;99.90;;;;;;1933937;74;20114;-73
2021/08/27 08:26:01;;;;;;;;;;;15.70;99.90;;;;;;1933696;73;20176;-73
2021/08/27 08:28:28;;;;;;;;;;;15.80;99.90;;;;;;1934026;74;20488;-73
2021/08/27 08:30:55;;;;;;;;;;;15.80;99.90;;;;;;1933676;74;20109;-73
2021/08/27 08:33:22;;;;;;;;;;;15.80;99.90;;;;;;1933924;74;20192;-73
2021/08/27 08:35:49;;;;;;;;;;;15.90;99.90;;;;;;1933837;73;20164;-73
2021/08/27 08:38:17;;;;;;;;;;;16.00;99.90;;;;;;1936878;73;20168;-70
2021/08/27 08:40:45;;;;;;;;;;;16.00;99.90;;;;;;1937587;73;20165;-70
2021/08/27 08:43:12;;;;;;;;;;;16.00;99.90;;;;;;1937756;74;20176;-70
2021/08/27 08:45:40;;;;;;;;;;;15.90;99.90;;;;;;1937720;74;20129;-70
2021/08/27 08:48:07;;;;;;;;;;;15.90;99.90;;;;;;1966301;73;20162;-70
2021/08/27 08:50:35;;;;;;;;;;;15.90;99.90;;;;;;1972641;73;20151;-70
2021/08/27 08:53:02;;;;;;;;;;;15.90;99.90;;;;;;1972971;73;20825;-70
2021/08/27 08:55:30;;;;;;;;;;;15.80;99.90;;;;;;1972862;73;20447;-70
2021/08/27 08:57:57;;;;;;;;;;;15.90;99.90;;;;;;1972789;73;20162;-70
2021/08/27 09:00:24;;;;;;;;;;;15.80;99.90;;;;;;1972567;73;20170;-70
2021/08/27 09:02:51;;;;;;;;;;;15.80;99.90;;;;;;1972764;73;20446;-70
2021/08/27 09:05:18;;;;;;;;;;;15.80;99.90;;;;;;1972799;73;20151;-70
2021/08/27 09:07:45;;;;;;;;;;;15.90;99.90;;;;;;1972835;73;20478;-70
2021/08/27 09:10:13;;;;;;;;;;;15.80;99.90;;;;;;1972788;73;20096;-70
2021/08/27 09:12:40;;;;;;;;;;;15.80;99.90;;;;;;1972187;73;20435;-70
2021/08/27 09:15:09;;;;;;;;;;;15.90;99.90;;;;;;1972896;73;20170;-70
2021/08/27 09:17:37;;;;;;;;;;;15.90;99.90;;;;;;1972129;73;20123;-70
2021/08/27 09:20:05;;;;;;;;;;;15.90;99.90;;;;;;1972338;73;20411;-70
2021/08/27 09:22:47;;;;;;;;;;;15.90;99.90;;;;;;1972676;73;20169;-70
2021/08/27 09:25:14;;;;;;;;;;;15.90;99.90;;;;;;1972894;73;20166;-70
2021/08/27 09:27:45;;;;;;;;;;;15.90;99.90;;;;;;1972967;73;20214;-70
2021/08/27 09:30:12;;;;;;;;;;;15.90;99.90;;;;;;1963638;73;20104;-70
2021/08/27 09:32:39;;;;;;;;;;;15.90;99.90;;;;;;1972831;73;20150;-70
2021/08/27 09:35:14;;;;;;;;;;;15.90;99.90;;;;;;1972966;73;20193;-70
2021/08/27 09:37:40;;;;;;;;;;;15.90;99.90;;;;;;1972307;73;20118;-70
2021/08/27 09:40:09;;;;;;;;;;;16.00;99.90;;;;;;1973028;73;20162;-69
2021/08/27 09:42:37;;;;;;;;;;;16.00;99.90;;;;;;1972901;73;20154;-69
2021/08/27 09:45:04;;;;;;;;;;;16.10;99.90;;;;;;1973080;73;20174;-70
2021/08/27 09:47:31;;;;;;;;;;;16.10;99.90;;;;;;1972874;73;20185;-70
2021/08/27 09:49:57;;;;;;;;;;;16.20;99.90;;;;;;1973127;73;20116;-70
2021/08/27 09:52:24;;;;;;;;;;;16.30;99.90;;;;;;1972970;73;20174;-70
2021/08/27 09:54:52;;;;;;;;;;;16.20;99.90;;;;;;1973032;73;20149;-70
2021/08/27 09:57:20;;;;;;;;;;;16.30;99.90;;;;;;1973051;73;20178;-70
2021/08/27 09:59:47;;;;;;;;;;;16.30;99.90;;;;;;1971521;73;20169;-70
2021/08/27 10:02:16;;;;;;;;;;;16.30;99.90;;;;;;1972812;73;20166;-70
2021/08/27 10:04:50;;;;;;;;;;;16.40;99.90;;;;;;1973167;73;20197;-70
2021/08/27 10:07:27;;;;;;;;;;;16.40;99.90;;;;;;1973051;73;20170;-70
2021/08/27 10:09:54;;;;;;;;;;;16.40;99.90;;;;;;1973193;73;20436;-70
2021/08/27 10:12:20;;;;;;;;;;;16.40;99.90;;;;;;1972674;73;20202;-70
2021/08/27 10:14:49;;;;;;;;;;;16.30;99.90;;;;;;1972938;73;20123;-70
2021/08/27 10:17:16;;;;;;;;;;;16.40;99.90;;;;;;1973084;73;20112;-70
2021/08/27 10:19:43;;;;;;;;;;;16.40;99.90;;;;;;1973031;73;20198;-70
2021/08/27 10:22:10;;;;;;;;;;;16.40;99.90;;;;;;1972747;73;20122;-70
2021/08/27 10:24:37;;;;;;;;;;;16.50;99.90;;;;;;1972967;73;20364;-70
2021/08/27 10:27:05;;;;;;;;;;;16.50;99.90;;;;;;1973008;73;20154;-70
2021/08/27 10:29:32;;;;;;;;;;;16.60;99.90;;;;;;1972842;73;20247;-70
2021/08/27 10:31:59;;;;;;;;;;;16.60;99.90;;;;;;1972939;73;20169;-70
2021/08/27 10:34:40;;;;;;;;;;;16.60;99.90;;;;;;1972955;73;20158;-70
2021/08/27 10:37:07;;;;;;;;;;;16.70;99.90;;;;;;1972419;73;20104;-70
2021/08/27 10:39:41;;;;;;;;;;;16.60;99.90;;;;;;1973212;73;20178;-70
2021/08/27 10:42:09;;;;;;;;;;;16.70;99.90;;;;;;1972890;73;20176;-70
2021/08/27 10:44:46;;;;;;;;;;;16.70;99.90;;;;;;1973222;73;20162;-70
2021/08/27 10:47:13;;;;;;;;;;;16.70;99.90;;;;;;1972970;73;20217;-70
2021/08/27 10:49:47;;;;;;;;;;;16.80;99.90;;;;;;1973022;73;20162;-70
2021/08/27 10:52:32;;;;;;;;;;;16.70;99.90;;;;;;1972739;73;20443;-70
2021/08/27 10:55:04;;;;;;;;;;;16.70;99.90;;;;;;1973063;73;20157;-72
2021/08/27 10:57:32;;;;;;;;;;;16.70;99.90;;;;;;1973060;73;20166;-70
2021/08/27 11:00:00;;;;;;;;;;;16.80;99.90;;;;;;1970640;73;20396;-70
2021/08/27 11:02:28;;;;;;;;;;;16.70;99.90;;;;;;1972720;73;20138;-69
2021/08/27 11:04:55;;;;;;;;;;;16.80;99.90;;;;;;1973049;73;20158;-70
2021/08/27 11:07:23;;;;;;;;;;;16.80;99.90;;;;;;1973055;73;20123;-70
2021/08/27 11:10:00;;;;;;;;;;;16.80;99.90;;;;;;1972653;73;20167;-70
2021/08/27 11:12:31;;;;;;;;;;;16.90;99.90;;;;;;1972705;73;20165;-70
2021/08/27 11:15:02;;;;;;;;;;;16.90;99.90;;;;;;1973057;73;20139;-70
2021/08/27 11:17:27;;;;;;;;;;;16.90;99.90;;;;;;1968476;73;20149;-72
2021/08/27 11:19:59;;;;;;;;;;;16.90;99.90;;;;;;1972991;73;20463;-72
2021/08/27 11:22:27;;;;;;;;;;;16.90;99.90;;;;;;1972713;73;20146;-72
2021/08/27 11:25:15;;;;;;;;;;;16.90;99.90;;;;;;1973038;73;20193;-71
2021/08/27 11:27:32;;;;;;;;;;;16.90;99.90;;;;;;1967526;73;20182;-72
2021/08/27 11:30:01;;;;;;;;;;;17.00;99.90;;;;;;1972974;73;20174;-71
2021/08/27 11:32:30;;;;;;;;;;;17.00;99.90;;;;;;1968095;73;20120;-72
2021/08/27 11:35:05;;;;;;;;;;;17.00;99.90;;;;;;1973085;73;20164;-70
2021/08/27 11:37:32;;;;;;;;;;;17.10;99.90;;;;;;1973065;73;20204;-70
2021/08/27 11:39:59;;;;;;;;;;;17.10;99.90;;;;;;1973068;73;20452;-69
2021/08/27 11:42:27;;;;;;;;;;;17.20;99.90;;;;;;1972836;73;20162;-70
2021/08/27 11:44:55;;;;;;;;;;;17.30;99.90;;;;;;1973057;73;20481;-70
2021/08/27 11:47:22;;;;;;;;;;;17.40;99.90;;;;;;1972527;73;20166;-69
2021/08/27 11:49:53;;;;;;;;;;;17.60;99.90;;;;;;1973151;73;20119;-69
2021/08/27 11:52:22;;;;;;;;;;;17.70;99.90;;;;;;1972983;73;20181;-70
2021/08/27 11:54:49;;;;;;;;;;;17.80;99.90;;;;;;1971016;73;20150;-70
2021/08/27 11:57:16;;;;;;;;;;;17.70;99.90;;;;;;1972976;73;20174;-70
2021/08/27 11:59:44;;;;;;;;;;;17.80;99.90;;;;;;1973170;73;20123;-70
2021/08/27 12:02:15;;;;;;;;;;;17.80;99.90;;;;;;1972772;73;20139;-71
2021/08/27 12:04:41;;;;;;;;;;;17.90;99.90;;;;;;1972985;73;20119;-70
2021/08/27 12:07:13;;;;;;;;;;;17.90;99.90;;;;;;1972908;73;20455;-70
2021/08/27 12:09:41;;;;;;;;;;;18.00;99.90;;;;;;1972949;73;20452;-70
2021/08/27 12:12:08;;;;;;;;;;;18.00;99.90;;;;;;1972693;73;20388;-70
2021/08/27 12:14:48;;;;;;;;;;;18.00;99.90;;;;;;1972963;73;20120;-69
2021/08/27 12:17:18;;;;;;;;;;;18.10;99.90;;;;;;1972780;73;20177;-69
2021/08/27 12:19:45;;;;;;;;;;;18.10;99.90;;;;;;1972881;73;20170;-70
2021/08/27 12:22:12;;;;;;;;;;;18.10;99.90;;;;;;1972717;73;20157;-69
2021/08/27 12:24:39;;;;;;;;;;;18.10;99.90;;;;;;1972707;73;20163;-70
2021/08/27 12:27:06;;;;;;;;;;;18.20;99.90;;;;;;1972783;73;20369;-70
2021/08/27 12:29:33;;;;;;;;;;;18.20;99.90;;;;;;1972715;73;20463;-69
2021/08/27 12:32:00;;;;;;;;;;;18.20;99.90;;;;;;1972705;73;20114;-70
2021/08/27 12:34:27;;;;;;;;;;;18.30;99.90;;;;;;1972817;73;20170;-69
2021/08/27 12:36:54;;;;;;;;;;;18.30;99.90;;;;;;1973027;73;20178;-69
2021/08/27 12:39:20;;;;;;;;;;;18.40;99.90;;;;;;1973109;73;20407;-70
2021/08/27 12:41:47;;;;;;;;;;;18.30;99.90;;;;;;1972788;73;20212;-70
2021/08/27 12:44:15;;;;;;;;;;;18.20;99.90;;;;;;1973043;73;20146;-70
2021/08/27 12:46:48;;;;;;;;;;;18.20;99.90;;;;;;1972983;73;20166;-69
2021/08/27 12:49:19;;;;;;;;;;;18.20;99.90;;;;;;1972928;73;20451;-70
2021/08/27 12:51:47;;;;;;;;;;;18.10;99.90;;;;;;1972844;73;20196;-70
2021/08/27 12:54:14;;;;;;;;;;;18.00;99.90;;;;;;1972925;73;20159;-70
2021/08/27 12:56:42;;;;;;;;;;;18.00;99.90;;;;;;1972895;73;20193;-70
2021/08/27 12:59:15;;;;;;;;;;;17.90;99.90;;;;;;1972998;73;20146;-69
2021/08/27 13:01:42;;;;;;;;;;;18.00;99.90;;;;;;1972756;73;20207;-70
2021/08/27 13:04:09;;;;;;;;;;;18.00;99.90;;;;;;1973039;73;20162;-70
2021/08/27 13:06:43;;;;;;;;;;;18.00;99.90;;;;;;1972958;73;20200;-70
2021/08/27 13:09:12;;;;;;;;;;;18.10;99.90;;;;;;1973010;73;20170;-70
2021/08/27 13:11:46;;;;;;;;;;;18.20;99.90;;;;;;1972657;73;20204;-70
2021/08/27 13:14:14;;;;;;;;;;;18.30;99.90;;;;;;1972967;73;20193;-70
2021/08/27 13:16:42;;;;;;;;;;;18.20;99.90;;;;;;1967962;73;20170;-70
2021/08/27 13:19:09;;;;;;;;;;;18.20;99.90;;;;;;1971404;73;20104;-70
2021/08/27 13:21:36;;;;;;;;;;;18.30;99.90;;;;;;1972683;73;20162;-70
2021/08/27 13:24:04;;;;;;;;;;;18.20;99.90;;;;;;1972985;73;20115;-70
2021/08/27 13:26:31;;;;;;;;;;;18.30;99.90;;;;;;1972895;73;20200;-70
2021/08/27 13:28:58;;;;;;;;;;;18.60;99.90;;;;;;1972823;73;20300;-70
2021/08/27 13:31:25;;;;;;;;;;;18.70;99.90;;;;;;1972307;73;20427;-70
2021/08/27 13:33:52;;;;;;;;;;;18.80;99.90;;;;;;1972611;73;20150;-70
2021/08/27 13:36:19;;;;;;;;;;;18.90;99.90;;;;;;1972631;73;20166;-70
2021/08/27 13:38:46;;;;;;;;;;;18.90;99.90;;;;;;1972571;73;20185;-70
2021/08/27 13:41:12;;;;;;;;;;;18.80;99.90;;;;;;1972333;73;20145;-70
2021/08/27 13:43:39;;;;;;;;;;;18.90;99.90;;;;;;1972478;73;20174;-70
2021/08/27 13:46:06;;;;;;;;;;;19.00;99.90;;;;;;1972819;73;20104;-70
2021/08/27 13:48:33;;;;;;;;;;;19.10;99.90;;;;;;1972454;73;20147;-70
2021/08/27 13:50:59;;;;;;;;;;;19.20;99.90;;;;;;1972435;73;20220;-70
2021/08/27 13:53:26;;;;;;;;;;;19.50;99.90;;;;;;1972681;73;20116;-70
2021/08/27 13:55:53;;;;;;;;;;;19.60;99.90;;;;;;1972691;73;20182;-70
2021/08/27 13:58:20;;;;;;;;;;;19.60;99.90;;;;;;1972578;73;20248;-70
2021/08/27 14:00:47;;;;;;;;;;;19.60;99.90;;;;;;1972410;73;20419;-70
2021/08/27 14:03:15;;;;;;;;;;;19.30;99.90;;;;;;1972480;73;20169;-70
2021/08/27 14:05:43;;;;;;;;;;;19.10;99.90;;;;;;1972724;73;20447;-70
2021/08/27 14:08:10;;;;;;;;;;;19.00;99.90;;;;;;1972666;73;20455;-70
2021/08/27 14:10:37;;;;;;;;;;;18.90;99.90;;;;;;1972338;73;20123;-70
2021/08/27 14:13:04;;;;;;;;;;;19.00;99.90;;;;;;1972617;73;20337;-70
2021/08/27 14:15:31;;;;;;;;;;;19.00;99.90;;;;;;1972547;73;20162;-70
2021/08/27 14:17:57;;;;;;;;;;;19.10;99.90;;;;;;1972652;73;20130;-70
2021/08/27 14:20:24;;;;;;;;;;;19.50;99.90;;;;;;1972529;73;20173;-70
2021/08/27 14:22:51;;;;;;;;;;;19.40;99.90;;;;;;1972760;73;20126;-70